Time;durP1;ratioP1;P1;durP2;ratioP2;P2;SDS_P1;SDS_P2;PMS_P1;PMS_P2;Temp;Humidity;BMP_temperature;BMP_pressure;BME280_temperature;BME280_humidity;BME280_pressure;Samples;Min_cycle;Max_cycle;Signal;HPM_P1;HPM_P2
2022/04/14 00:01:43;;;;;;;;;;;;;;;;;;5097001;28;19911;-72
2022/04/14 00:04:09;;;;;;;;;;;;;;;;;;5115165;28;19912;-71
2022/04/14 00:06:35;;;;;;;;;;;;;;;;;;5114977;28;19915;-71
2022/04/14 00:09:01;;;;;;;;;;;;;;;;;;5115116;28;20019;-72
2022/04/14 00:11:27;;;;;;;;;;;;;;;;;;5096778;28;19912;-72
2022/04/14 00:13:52;;;;;;;;;;;;;;;;;;5115095;28;19957;-72
2022/04/14 00:16:18;;;;;;;;;;;;;;;;;;5096696;28;19915;-71
2022/04/14 00:18:44;;;;;;;;;;;;;;;;;;5114968;28;19904;-71
2022/04/14 00:21:10;;;;;;;;;;;;;;;;;;5114857;28;19912;-71
2022/04/14 00:23:36;;;;;;;;;;;;;;;;;;5114977;28;19908;-72
2022/04/14 00:26:02;;;;;;;;;;;;;;;;;;5115232;28;19996;-71
2022/04/14 00:28:28;;;;;;;;;;;;;;;;;;5096272;28;20275;-72
2022/04/14 00:30:54;;;;;;;;;;;;;;;;;;5096448;28;19961;-72
2022/04/14 00:33:20;;;;;;;;;;;;;;;;;;5096126;28;19935;-71
2022/04/14 00:35:46;;;;;;;;;;;;;;;;;;5096543;28;20000;-72
2022/04/14 00:38:11;;;;;;;;;;;;;;;;;;5096215;28;19958;-69
2022/04/14 00:40:37;;;;;;;;;;;;;;;;;;5096227;28;20454;-71
2022/04/14 00:43:03;;;;;;;;;;;;;;;;;;5096157;28;19916;-71
2022/04/14 00:45:29;;;;;;;;;;;;;;;;;;5096189;28;19961;-72
2022/04/14 00:47:55;;;;;;;;;;;;;;;;;;5114411;28;19920;-71
2022/04/14 00:50:21;;;;;;;;;;;;;;;;;;5096099;28;19970;-71
2022/04/14 00:52:47;;;;;;;;;;;;;;;;;;5114390;28;19919;-72
2022/04/14 00:55:13;;;;;;;;;;;;;;;;;;5114477;28;20276;-73
2022/04/14 00:57:39;;;;;;;;;;;;;;;;;;5114500;28;19965;-70
2022/04/14 01:00:05;;;;;;;;;;;;;;;;;;5095790;28;20264;-71
2022/04/14 01:02:31;;;;;;;;;;;;;;;;;;5095732;28;19996;-72
2022/04/14 01:04:57;;;;;;;;;;;;;;;;;;5113724;28;20256;-72
2022/04/14 01:07:23;;;;;;;;;;;;;;;;;;5113799;28;19968;-71
2022/04/14 01:09:48;;;;;;;;;;;;;;;;;;5114120;28;19927;-71
2022/04/14 01:12:14;;;;;;;;;;;;;;;;;;5113890;28;20010;-72
2022/04/14 01:14:40;;;;;;;;;;;;;;;;;;5095584;28;19957;-72
2022/04/14 01:17:06;;;;;;;;;;;;;;;;;;5113875;28;19949;-71
2022/04/14 01:19:32;;;;;;;;;;;;;;;;;;5113865;28;19912;-71
2022/04/14 01:21:58;;;;;;;;;;;;;;;;;;5113714;28;19919;-72
2022/04/14 01:24:24;;;;;;;;;;;;;;;;;;5113844;28;19943;-71
2022/04/14 01:26:50;;;;;;;;;;;;;;;;;;5113512;28;19916;-71
2022/04/14 01:29:16;;;;;;;;;;;;;;;;;;5095167;28;19966;-72
2022/04/14 01:31:42;;;;;;;;;;;;;;;;;;5113398;28;19923;-72
2022/04/14 01:34:08;;;;;;;;;;;;;;;;;;5095460;28;19911;-72
2022/04/14 01:36:33;;;;;;;;;;;;;;;;;;5095003;28;20342;-71
2022/04/14 01:38:59;;;;;;;;;;;;;;;;;;5113445;28;19931;-72
2022/04/14 01:41:25;;;;;;;;;;;;;;;;;;5113277;28;19916;-71
2022/04/14 01:43:51;;;;;;;;;;;;;;;;;;5094956;28;19970;-72
2022/04/14 01:46:17;;;;;;;;;;;;;;;;;;5113276;28;19916;-72
2022/04/14 01:48:43;;;;;;;;;;;;;;;;;;5113052;28;19984;-71
2022/04/14 01:51:09;;;;;;;;;;;;;;;;;;5113173;28;19912;-71
2022/04/14 01:53:35;;;;;;;;;;;;;;;;;;5113112;28;19945;-72
2022/04/14 01:56:01;;;;;;;;;;;;;;;;;;5113522;28;19912;-71
2022/04/14 01:58:26;;;;;;;;;;;;;;;;;;5113021;28;19997;-71
2022/04/14 02:00:52;;;;;;;;;;;;;;;;;;5113413;28;19916;-72
2022/04/14 02:03:18;;;;;;;;;;;;;;;;;;5112934;28;20309;-71
2022/04/14 02:05:44;;;;;;;;;;;;;;;;;;5113284;28;19916;-72
2022/04/14 02:08:10;;;;;;;;;;;;;;;;;;5112659;28;19924;-71
2022/04/14 02:10:36;;;;;;;;;;;;;;;;;;5094483;28;20010;-73
2022/04/14 02:13:04;;;;;;;;;;;;;;;;;;5112270;28;20442;-72
2022/04/14 02:15:30;;;;;;;;;;;;;;;;;;5112537;28;19973;-73
2022/04/14 02:17:57;;;;;;;;;;;;;;;;;;5112508;28;19915;-71
2022/04/14 02:20:23;;;;;;;;;;;;;;;;;;5113061;28;20267;-72
2022/04/14 02:22:49;;;;;;;;;;;;;;;;;;5112844;28;19912;-71
2022/04/14 02:25:15;;;;;;;;;;;;;;;;;;5094193;28;20287;-72
2022/04/14 02:27:41;;;;;;;;;;;;;;;;;;5093985;28;20364;-72
2022/04/14 02:30:07;;;;;;;;;;;;;;;;;;5112655;28;19916;-72
2022/04/14 02:32:33;;;;;;;;;;;;;;;;;;5112244;28;19911;-71
2022/04/14 02:34:59;;;;;;;;;;;;;;;;;;5112651;28;19916;-72
2022/04/14 02:37:24;;;;;;;;;;;;;;;;;;5093896;28;20532;-72
2022/04/14 02:39:50;;;;;;;;;;;;;;;;;;5094093;28;19912;-73
2022/04/14 02:42:16;;;;;;;;;;;;;;;;;;5112169;28;20287;-72
2022/04/14 02:44:42;;;;;;;;;;;;;;;;;;5112382;28;20003;-71
2022/04/14 02:47:08;;;;;;;;;;;;;;;;;;5112431;28;19919;-71
2022/04/14 02:49:34;;;;;;;;;;;;;;;;;;5112270;28;19919;-72
2022/04/14 02:52:00;;;;;;;;;;;;;;;;;;5094002;28;19935;-71
2022/04/14 02:54:26;;;;;;;;;;;;;;;;;;5112030;28;20278;-72
2022/04/14 02:56:52;;;;;;;;;;;;;;;;;;5112232;28;20007;-72
2022/04/14 02:59:18;;;;;;;;;;;;;;;;;;5112106;28;20287;-72
2022/04/14 03:01:44;;;;;;;;;;;;;;;;;;5111945;28;19916;-72
2022/04/14 03:04:09;;;;;;;;;;;;;;;;;;5093604;28;20459;-71
2022/04/14 03:06:35;;;;;;;;;;;;;;;;;;5093345;28;19923;-71
2022/04/14 03:09:02;;;;;;;;;;;;;;;;;;5093456;28;19914;-72
2022/04/14 03:11:28;;;;;;;;;;;;;;;;;;5093500;28;20270;-72
2022/04/14 03:13:53;;;;;;;;;;;;;;;;;;5093623;28;20016;-72
2022/04/14 03:16:19;;;;;;;;;;;;;;;;;;5111820;28;20322;-73
2022/04/14 03:18:45;;;;;;;;;;;;;;;;;;5093226;28;20348;-73
2022/04/14 03:21:11;;;;;;;;;;;;;;;;;;5093423;28;19920;-73
2022/04/14 03:23:37;;;;;;;;;;;;;;;;;;5111671;28;19904;-72
2022/04/14 03:26:03;;;;;;;;;;;;;;;;;;5112140;28;19916;-71
2022/04/14 03:28:29;;;;;;;;;;;;;;;;;;5114694;28;19919;-71
2022/04/14 03:30:55;;;;;;;;;;;;;;;;;;5116426;28;19916;-72
2022/04/14 03:33:21;;;;;;;;;;;;;;;;;;5115811;28;19965;-72
2022/04/14 03:35:47;;;;;;;;;;;;;;;;;;5116305;28;19916;-72
2022/04/14 03:38:13;;;;;;;;;;;;;;;;;;5097310;28;20310;-72
2022/04/14 03:40:39;;;;;;;;;;;;;;;;;;5116173;28;19950;-72
2022/04/14 03:43:05;;;;;;;;;;;;;;;;;;5097378;28;19920;-72
2022/04/14 03:45:31;;;;;;;;;;;;;;;;;;5115987;28;19996;-73
2022/04/14 03:47:57;;;;;;;;;;;;;;;;;;5115555;28;20275;-72
2022/04/14 03:50:22;;;;;;;;;;;;;;;;;;5115400;28;19923;-73
2022/04/14 03:52:48;;;;;;;;;;;;;;;;;;5115407;28;19912;-72
2022/04/14 03:55:14;;;;;;;;;;;;;;;;;;5097211;28;19964;-72
2022/04/14 03:57:40;;;;;;;;;;;;;;;;;;5115394;28;19911;-72
2022/04/14 04:00:06;;;;;;;;;;;;;;;;;;5115689;28;20444;-72
2022/04/14 04:02:32;;;;;;;;;;;;;;;;;;5115197;28;20000;-72
2022/04/14 04:04:58;;;;;;;;;;;;;;;;;;5115528;28;20026;-72
2022/04/14 04:07:24;;;;;;;;;;;;;;;;;;5096722;28;19931;-72
2022/04/14 04:09:50;;;;;;;;;;;;;;;;;;5096950;28;19916;-72
2022/04/14 04:12:17;;;;;;;;;;;;;;;;;;5096828;28;20402;-72
2022/04/14 04:14:43;;;;;;;;;;;;;;;;;;5096776;28;19962;-72
2022/04/14 04:17:09;;;;;;;;;;;;;;;;;;5096766;28;20379;-72
2022/04/14 04:19:38;;;;;;;;;;;;;;;;;;5114867;28;19923;-73
2022/04/14 04:22:04;;;;;;;;;;;;;;;;;;5096723;28;19958;-73
2022/04/14 04:24:30;;;;;;;;;;;;;;;;;;5115030;28;19916;-73
2022/04/14 04:26:56;;;;;;;;;;;;;;;;;;5096603;28;20352;-72
2022/04/14 04:29:22;;;;;;;;;;;;;;;;;;5096325;28;20010;-73
2022/04/14 04:31:47;;;;;;;;;;;;;;;;;;5114767;28;19919;-72
2022/04/14 04:34:13;;;;;;;;;;;;;;;;;;5114681;28;20010;-72
2022/04/14 04:36:39;;;;;;;;;;;;;;;;;;5114851;28;19919;-73
2022/04/14 04:39:05;;;;;;;;;;;;;;;;;;5113621;28;19920;-72
2022/04/14 04:41:31;;;;;;;;;;;;;;;;;;5114499;28;19968;-73
2022/04/14 04:43:57;;;;;;;;;;;;;;;;;;5114360;28;20356;-72
2022/04/14 04:46:23;;;;;;;;;;;;;;;;;;5114596;28;19919;-73
2022/04/14 04:48:49;;;;;;;;;;;;;;;;;;5114228;28;19911;-73
2022/04/14 04:51:15;;;;;;;;;;;;;;;;;;5096059;28;20342;-74
2022/04/14 04:53:40;;;;;;;;;;;;;;;;;;5114333;28;19911;-73
2022/04/14 04:56:06;;;;;;;;;;;;;;;;;;5114742;28;20071;-74
2022/04/14 04:58:32;;;;;;;;;;;;;;;;;;5095874;28;19908;-73
2022/04/14 05:00:58;;;;;;;;;;;;;;;;;;5114718;28;19935;-73
2022/04/14 05:03:24;;;;;;;;;;;;;;;;;;5095735;28;20367;-73
2022/04/14 05:05:50;;;;;;;;;;;;;;;;;;5095689;28;19919;-73
2022/04/14 05:08:16;;;;;;;;;;;;;;;;;;5095504;28;19993;-73
2022/04/14 05:10:42;;;;;;;;;;;;;;;;;;5114366;28;20427;-73
2022/04/14 05:13:08;;;;;;;;;;;;;;;;;;5114019;28;20272;-73
2022/04/14 05:15:35;;;;;;;;;;;;;;;;;;5114230;28;19912;-72
2022/04/14 05:18:01;;;;;;;;;;;;;;;;;;5095804;28;19960;-72
2022/04/14 05:20:27;;;;;;;;;;;;;;;;;;5114254;28;20288;-73
2022/04/14 05:22:53;;;;;;;;;;;;;;;;;;5114011;28;19920;-73
2022/04/14 05:25:19;;;;;;;;;;;;;;;;;;5114197;28;19918;-73
2022/04/14 05:27:45;;;;;;;;;;;;;;;;;;5113750;28;20078;-73
2022/04/14 05:30:11;;;;;;;;;;;;;;;;;;5113889;28;19963;-73
2022/04/14 05:32:37;;;;;;;;;;;;;;;;;;5113558;28;19918;-72
2022/04/14 05:35:03;;;;;;;;;;;;;;;;;;5095169;28;19916;-72
2022/04/14 05:37:29;;;;;;;;;;;;;;;;;;5113497;28;19916;-72
2022/04/14 05:39:55;;;;;;;;;;;;;;;;;;5113609;28;20331;-72
2022/04/14 05:42:20;;;;;;;;;;;;;;;;;;5113693;28;20244;-72
2022/04/14 05:44:47;;;;;;;;;;;;;;;;;;5095049;28;20203;-73
2022/04/14 05:47:13;;;;;;;;;;;;;;;;;;5113360;28;19957;-73
2022/04/14 05:49:39;;;;;;;;;;;;;;;;;;5094811;28;19920;-73
2022/04/14 05:52:05;;;;;;;;;;;;;;;;;;5094698;28;19912;-72
2022/04/14 05:54:31;;;;;;;;;;;;;;;;;;5113119;28;19918;-72
2022/04/14 05:56:59;;;;;;;;;;;;;;;;;;5113694;28;19998;-73
2022/04/14 05:59:25;;;;;;;;;;;;;;;;;;5094648;28;20331;-73
2022/04/14 06:01:51;;;;;;;;;;;;;;;;;;5113040;28;19916;-73
2022/04/14 06:04:17;;;;;;;;;;;;;;;;;;5112911;28;20381;-73
2022/04/14 06:06:43;;;;;;;;;;;;;;;;;;5113030;28;19912;-72
2022/04/14 06:09:09;;;;;;;;;;;;;;;;;;5094463;28;20413;-72
2022/04/14 06:11:35;;;;;;;;;;;;;;;;;;5112845;28;19955;-73
2022/04/14 06:14:00;;;;;;;;;;;;;;;;;;5112799;28;19961;-72
2022/04/14 06:16:26;;;;;;;;;;;;;;;;;;5112708;28;19998;-72
2022/04/14 06:18:52;;;;;;;;;;;;;;;;;;5113229;28;20275;-74
2022/04/14 06:21:18;;;;;;;;;;;;;;;;;;5112689;28;19930;-73
2022/04/14 06:23:44;;;;;;;;;;;;;;;;;;5094235;28;19908;-73
2022/04/14 06:26:10;;;;;;;;;;;;;;;;;;5094274;28;20010;-72
2022/04/14 06:28:36;;;;;;;;;;;;;;;;;;5112579;28;19916;-73
2022/04/14 06:31:02;;;;;;;;;;;;;;;;;;5113096;28;19915;-73
2022/04/14 06:33:30;;;;;;;;;;;;;;;;;;5112470;28;20289;-73
2022/04/14 06:35:56;;;;;;;;;;;;;;;;;;5112833;28;20458;-73
2022/04/14 06:38:24;;;;;;;;;;;;;;;;;;5094153;28;20014;-73
2022/04/14 06:40:50;;;;;;;;;;;;;;;;;;5094121;28;20390;-73
2022/04/14 06:43:16;;;;;;;;;;;;;;;;;;5112156;28;19923;-73
2022/04/14 06:45:42;;;;;;;;;;;;;;;;;;5112506;28;19907;-73
2022/04/14 06:48:09;;;;;;;;;;;;;;;;;;5093892;28;19934;-73
2022/04/14 06:50:35;;;;;;;;;;;;;;;;;;5112360;28;19915;-73
2022/04/14 06:53:01;;;;;;;;;;;;;;;;;;5112114;28;19916;-72
2022/04/14 06:55:27;;;;;;;;;;;;;;;;;;5112256;28;20321;-72
2022/04/14 06:57:53;;;;;;;;;;;;;;;;;;5112070;28;19995;-73
2022/04/14 07:00:21;;;;;;;;;;;;;;;;;;5112189;28;19914;-74
2022/04/14 07:02:47;;;;;;;;;;;;;;;;;;5111347;28;19919;-73
2022/04/14 07:05:13;;;;;;;;;;;;;;;;;;5112130;28;20419;-73
2022/04/14 07:07:39;;;;;;;;;;;;;;;;;;5111624;28;20010;-73
2022/04/14 07:10:05;;;;;;;;;;;;;;;;;;5112150;28;20006;-73
2022/04/14 07:12:30;;;;;;;;;;;;;;;;;;5111876;28;19955;-74
2022/04/14 07:14:56;;;;;;;;;;;;;;;;;;5112066;28;19915;-73
2022/04/14 07:17:22;;;;;;;;;;;;;;;;;;5111793;28;20249;-72
2022/04/14 07:19:50;;;;;;;;;;;;;;;;;;5111949;28;19911;-73
2022/04/14 07:22:17;;;;;;;;;;;;;;;;;;5111723;28;19973;-73
2022/04/14 07:24:43;;;;;;;;;;;;;;;;;;5093607;28;19916;-73
2022/04/14 07:27:10;;;;;;;;;;;;;;;;;;5111565;28;19911;-71
2022/04/14 07:29:36;;;;;;;;;;;;;;;;;;5093462;28;20379;-71
2022/04/14 07:32:02;;;;;;;;;;;;;;;;;;5111522;28;19915;-72
2022/04/14 07:34:28;;;;;;;;;;;;;;;;;;5111776;28;20300;-73
2022/04/14 07:36:54;;;;;;;;;;;;;;;;;;5111591;28;19919;-73
2022/04/14 07:39:19;;;;;;;;;;;;;;;;;;5111829;28;20362;-72
2022/04/14 07:41:45;;;;;;;;;;;;;;;;;;5111825;28;19922;-72
2022/04/14 07:44:11;;;;;;;;;;;;;;;;;;5111947;28;19912;-73
2022/04/14 07:46:38;;;;;;;;;;;;;;;;;;5111564;28;19919;-72
2022/04/14 07:49:04;;;;;;;;;;;;;;;;;;5111701;28;19943;-73
2022/04/14 07:51:30;;;;;;;;;;;;;;;;;;5093605;28;19912;-72
2022/04/14 07:53:56;;;;;;;;;;;;;;;;;;5111479;28;19907;-72
2022/04/14 07:56:22;;;;;;;;;;;;;;;;;;5093100;28;20336;-72
2022/04/14 07:58:48;;;;;;;;;;;;;;;;;;5111511;28;19961;-72
2022/04/14 08:01:15;;;;;;;;;;;;;;;;;;5111297;28;19911;-72
2022/04/14 08:03:41;;;;;;;;;;;;;;;;;;5092988;28;20260;-73
2022/04/14 08:06:06;;;;;;;;;;;;;;;;;;5093150;28;19961;-73
2022/04/14 08:08:32;;;;;;;;;;;;;;;;;;5110966;28;19968;-73
2022/04/14 08:11:03;;;;;;;;;;;;;;;;;;5111575;28;20328;-73
2022/04/14 08:13:30;;;;;;;;;;;;;;;;;;5111127;28;20364;-72
2022/04/14 08:16:01;;;;;;;;;;;;;;;;;;5115023;28;19915;-72
2022/04/14 08:18:27;;;;;;;;;;;;;;;;;;5096435;28;20367;-72
2022/04/14 08:20:52;;;;;;;;;;;;;;;;;;5115372;28;19912;-73
2022/04/14 08:23:18;;;;;;;;;;;;;;;;;;5114944;28;19959;-73
2022/04/14 08:25:44;;;;;;;;;;;;;;;;;;5114988;28;20371;-73
2022/04/14 08:28:10;;;;;;;;;;;;;;;;;;5096570;28;19911;-73
2022/04/14 08:30:36;;;;;;;;;;;;;;;;;;5096317;28;20010;-73
2022/04/14 08:33:02;;;;;;;;;;;;;;;;;;5114541;28;20264;-74
2022/04/14 08:35:28;;;;;;;;;;;;;;;;;;5115186;28;19912;-73
2022/04/14 08:37:54;;;;;;;;;;;;;;;;;;5114622;28;20352;-74
2022/04/14 08:40:21;;;;;;;;;;;;;;;;;;5096227;28;19915;-73
2022/04/14 08:42:47;;;;;;;;;;;;;;;;;;5096217;28;20011;-74
2022/04/14 08:45:13;;;;;;;;;;;;;;;;;;5114871;28;19922;-73
2022/04/14 08:47:42;;;;;;;;;;;;;;;;;;5114564;28;19912;-73
2022/04/14 08:50:07;;;;;;;;;;;;;;;;;;5114963;28;20007;-73
2022/04/14 08:52:34;;;;;;;;;;;;;;;;;;5096244;28;20397;-73
2022/04/14 08:55:00;;;;;;;;;;;;;;;;;;5096336;28;19912;-74
2022/04/14 08:57:25;;;;;;;;;;;;;;;;;;5114314;28;20283;-73
2022/04/14 08:59:51;;;;;;;;;;;;;;;;;;5114489;28;19916;-73
2022/04/14 09:02:17;;;;;;;;;;;;;;;;;;5114348;28;19935;-74
2022/04/14 09:04:43;;;;;;;;;;;;;;;;;;5114477;28;20391;-73
2022/04/14 09:07:09;;;;;;;;;;;;;;;;;;5113654;28;20385;-72
2022/04/14 09:09:35;;;;;;;;;;;;;;;;;;5114046;28;20019;-72
2022/04/14 09:12:01;;;;;;;;;;;;;;;;;;5114058;28;19911;-73
2022/04/14 09:14:28;;;;;;;;;;;;;;;;;;5114045;28;19912;-72
2022/04/14 09:16:53;;;;;;;;;;;;;;;;;;5095616;28;19912;-71
2022/04/14 09:19:20;;;;;;;;;;;;;;;;;;5113713;28;19911;-71
2022/04/14 09:21:46;;;;;;;;;;;;;;;;;;5095615;28;19923;-71
2022/04/14 09:24:12;;;;;;;;;;;;;;;;;;5095506;28;19911;-71
2022/04/14 09:26:38;;;;;;;;;;;;;;;;;;5113251;28;19934;-71
2022/04/14 09:29:04;;;;;;;;;;;;;;;;;;5113594;28;20297;-71
2022/04/14 09:31:30;;;;;;;;;;;;;;;;;;5113821;28;19919;-72
2022/04/14 09:33:55;;;;;;;;;;;;;;;;;;5113609;28;19912;-73
2022/04/14 09:36:23;;;;;;;;;;;;;;;;;;5113684;28;20256;-72
2022/04/14 09:38:49;;;;;;;;;;;;;;;;;;5113339;28;19943;-73
2022/04/14 09:41:15;;;;;;;;;;;;;;;;;;5113772;28;20012;-72
2022/04/14 09:43:41;;;;;;;;;;;;;;;;;;5113135;28;19914;-71
2022/04/14 09:46:07;;;;;;;;;;;;;;;;;;5095067;28;19912;-72
2022/04/14 09:48:33;;;;;;;;;;;;;;;;;;5094885;28;19912;-74
2022/04/14 09:50:59;;;;;;;;;;;;;;;;;;5113235;28;19969;-74
2022/04/14 09:53:26;;;;;;;;;;;;;;;;;;5095219;28;19912;-73
2022/04/14 09:55:52;;;;;;;;;;;;;;;;;;5113670;28;19912;-72
2022/04/14 09:58:18;;;;;;;;;;;;;;;;;;5094750;28;19912;-73
2022/04/14 10:00:44;;;;;;;;;;;;;;;;;;5113501;28;19943;-72
2022/04/14 10:03:09;;;;;;;;;;;;;;;;;;5112910;28;19920;-71
2022/04/14 10:05:35;;;;;;;;;;;;;;;;;;5113379;28;19911;-71
2022/04/14 10:08:01;;;;;;;;;;;;;;;;;;5094435;28;19924;-72
2022/04/14 10:10:27;;;;;;;;;;;;;;;;;;5113094;28;19960;-72
2022/04/14 10:12:53;;;;;;;;;;;;;;;;;;5094630;28;19974;-73
2022/04/14 10:15:20;;;;;;;;;;;;;;;;;;5112650;28;19954;-73
2022/04/14 10:17:46;;;;;;;;;;;;;;;;;;5094422;28;19927;-72
2022/04/14 10:20:14;;;;;;;;;;;;;;;;;;5094474;28;19912;-72
2022/04/14 10:22:40;;;;;;;;;;;;;;;;;;5112483;28;20437;-72
2022/04/14 10:25:06;;;;;;;;;;;;;;;;;;5094327;28;19916;-73
2022/04/14 10:27:33;;;;;;;;;;;;;;;;;;5112504;28;19912;-72
2022/04/14 10:29:59;;;;;;;;;;;;;;;;;;5094027;28;19919;-73
2022/04/14 10:32:25;;;;;;;;;;;;;;;;;;5112471;28;19919;-71
2022/04/14 10:34:50;;;;;;;;;;;;;;;;;;5112367;28;19912;-72
2022/04/14 10:37:16;;;;;;;;;;;;;;;;;;5111541;28;19915;-71
2022/04/14 10:39:42;;;;;;;;;;;;;;;;;;5112678;28;19916;-73
2022/04/14 10:42:08;;;;;;;;;;;;;;;;;;5112219;28;19926;-72
2022/04/14 10:44:34;;;;;;;;;;;;;;;;;;5112089;28;20282;-72
2022/04/14 10:47:00;;;;;;;;;;;;;;;;;;5093879;28;19990;-72
2022/04/14 10:49:27;;;;;;;;;;;;;;;;;;5112309;28;19985;-72
2022/04/14 10:51:54;;;;;;;;;;;;;;;;;;5112265;28;19927;-72
2022/04/14 10:54:19;;;;;;;;;;;;;;;;;;5093688;28;19947;-72
2022/04/14 10:56:45;;;;;;;;;;;;;;;;;;5112009;28;19954;-72
2022/04/14 10:59:11;;;;;;;;;;;;;;;;;;5112196;28;19912;-73
2022/04/14 11:01:37;;;;;;;;;;;;;;;;;;5112071;28;19912;-73
2022/04/14 11:04:03;;;;;;;;;;;;;;;;;;5111984;28;19919;-72
2022/04/14 11:06:29;;;;;;;;;;;;;;;;;;5111906;28;19922;-73
2022/04/14 11:08:55;;;;;;;;;;;;;;;;;;5093891;28;20264;-73
2022/04/14 11:11:21;;;;;;;;;;;;;;;;;;5111815;28;19947;-73
2022/04/14 11:13:47;;;;;;;;;;;;;;;;;;5093545;28;19930;-72
2022/04/14 11:16:13;;;;;;;;;;;;;;;;;;5111724;28;19912;-72
2022/04/14 11:18:38;;;;;;;;;;;;;;;;;;5093659;28;20324;-72
2022/04/14 11:21:04;;;;;;;;;;;;;;;;;;5112183;28;20241;-72
2022/04/14 11:23:30;;;;;;;;;;;;;;;;;;5093472;28;19916;-72
2022/04/14 11:25:56;;;;;;;;;;;;;;;;;;5112420;28;19950;-73
2022/04/14 11:28:22;;;;;;;;;;;;;;;;;;5093578;28;19934;-73
2022/04/14 11:30:48;;;;;;;;;;;;;;;;;;5112206;28;19916;-72
2022/04/14 11:33:14;;;;;;;;;;;;;;;;;;5112114;28;19957;-77
2022/04/14 11:35:40;;;;;;;;;;;;;;;;;;5093531;28;19976;-71
2022/04/14 11:38:08;;;;;;;;;;;;;;;;;;5093414;28;19916;-73
2022/04/14 11:40:34;;;;;;;;;;;;;;;;;;5111745;28;19955;-74
2022/04/14 11:43:00;;;;;;;;;;;;;;;;;;5112154;28;19912;-75
2022/04/14 11:45:26;;;;;;;;;;;;;;;;;;5111813;28;19958;-75
2022/04/14 11:47:54;;;;;;;;;;;;;;;;;;5111730;28;19982;-74
2022/04/14 11:50:20;;;;;;;;;;;;;;;;;;5115961;28;19916;-75
2022/04/14 11:52:46;;;;;;;;;;;;;;;;;;5115547;28;20378;-75
2022/04/14 11:55:12;;;;;;;;;;;;;;;;;;5115679;28;19998;-75
2022/04/14 11:57:39;;;;;;;;;;;;;;;;;;5115349;28;19912;-75
2022/04/14 12:00:05;;;;;;;;;;;;;;;;;;5097012;28;20379;-76
2022/04/14 12:02:31;;;;;;;;;;;;;;;;;;5096798;28;19912;-75
2022/04/14 12:04:57;;;;;;;;;;;;;;;;;;5115281;28;20388;-75
2022/04/14 12:07:23;;;;;;;;;;;;;;;;;;5115215;28;19923;-76
2022/04/14 12:09:48;;;;;;;;;;;;;;;;;;5115389;28;19959;-75
2022/04/14 12:12:14;;;;;;;;;;;;;;;;;;5115216;28;19912;-76
2022/04/14 12:14:40;;;;;;;;;;;;;;;;;;5096770;28;19923;-76
2022/04/14 12:17:06;;;;;;;;;;;;;;;;;;5096716;28;19915;-76
2022/04/14 12:19:32;;;;;;;;;;;;;;;;;;5115630;28;20386;-76
2022/04/14 12:21:58;;;;;;;;;;;;;;;;;;5096850;28;19912;-75
2022/04/14 12:24:24;;;;;;;;;;;;;;;;;;5096553;28;19931;-76
2022/04/14 12:26:50;;;;;;;;;;;;;;;;;;5096390;28;19912;-75
2022/04/14 12:29:16;;;;;;;;;;;;;;;;;;5096466;28;19922;-76
2022/04/14 12:31:42;;;;;;;;;;;;;;;;;;5114804;28;19947;-76
2022/04/14 12:34:07;;;;;;;;;;;;;;;;;;5096481;28;20275;-75
2022/04/14 12:36:33;;;;;;;;;;;;;;;;;;5114900;28;19912;-75
2022/04/14 12:39:00;;;;;;;;;;;;;;;;;;5114835;28;19930;-75
2022/04/14 12:41:26;;;;;;;;;;;;;;;;;;5096586;28;19951;-75
2022/04/14 12:43:52;;;;;;;;;;;;;;;;;;5115000;28;19969;-75
2022/04/14 12:46:18;;;;;;;;;;;;;;;;;;5114672;28;20367;-75
2022/04/14 12:48:43;;;;;;;;;;;;;;;;;;5096134;28;19957;-76
2022/04/14 12:51:09;;;;;;;;;;;;;;;;;;5095887;28;20442;-76
2022/04/14 12:53:35;;;;;;;;;;;;;;;;;;5114495;28;20450;-76
2022/04/14 12:56:01;;;;;;;;;;;;;;;;;;5095863;28;19912;-76
2022/04/14 12:58:27;;;;;;;;;;;;;;;;;;5114197;28;20276;-76
2022/04/14 13:00:53;;;;;;;;;;;;;;;;;;5113789;28;19912;-76
2022/04/14 13:03:21;;;;;;;;;;;;;;;;;;5114113;28;20291;-75
2022/04/14 13:05:47;;;;;;;;;;;;;;;;;;5114349;28;20290;-75
2022/04/14 13:08:13;;;;;;;;;;;;;;;;;;5095564;28;19931;-75
2022/04/14 13:10:40;;;;;;;;;;;;;;;;;;5113932;28;20383;-75
2022/04/14 13:13:05;;;;;;;;;;;;;;;;;;5113992;28;20000;-75
2022/04/14 13:15:31;;;;;;;;;;;;;;;;;;5114386;28;19959;-75
2022/04/14 13:17:57;;;;;;;;;;;;;;;;;;5113931;28;20396;-75
2022/04/14 13:20:24;;;;;;;;;;;;;;;;;;5095452;28;19923;-75
2022/04/14 13:22:53;;;;;;;;;;;;;;;;;;5095552;28;19912;-75
2022/04/14 13:25:19;;;;;;;;;;;;;;;;;;5113636;28;20002;-74
2022/04/14 13:27:45;;;;;;;;;;;;;;;;;;5095358;28;20352;-74
2022/04/14 13:30:11;;;;;;;;;;;;;;;;;;5095397;28;19916;-75
2022/04/14 13:32:36;;;;;;;;;;;;;;;;;;5095212;28;19922;-75
2022/04/14 13:35:02;;;;;;;;;;;;;;;;;;5095321;28;20274;-75
2022/04/14 13:37:32;;;;;;;;;;;;;;;;;;5113495;28;19916;-75
2022/04/14 13:39:57;;;;;;;;;;;;;;;;;;5095215;28;19912;-75
2022/04/14 13:42:23;;;;;;;;;;;;;;;;;;5113409;28;20007;-74
2022/04/14 13:44:51;;;;;;;;;;;;;;;;;;5113569;28;20433;-74
2022/04/14 13:47:16;;;;;;;;;;;;;;;;;;5113170;28;19963;-75
2022/04/14 13:49:42;;;;;;;;;;;;;;;;;;5094835;28;19966;-75
2022/04/14 13:52:08;;;;;;;;;;;;;;;;;;5094868;28;19955;-75
2022/04/14 13:54:34;;;;;;;;;;;;;;;;;;5094940;28;20011;-75
2022/04/14 13:57:00;;;;;;;;;;;;;;;;;;5112910;28;19912;-75
2022/04/14 13:59:26;;;;;;;;;;;;;;;;;;5094919;28;19950;-75
2022/04/14 14:01:52;;;;;;;;;;;;;;;;;;5113100;28;19912;-75
2022/04/14 14:04:18;;;;;;;;;;;;;;;;;;5113025;28;19916;-75
2022/04/14 14:06:44;;;;;;;;;;;;;;;;;;5112709;28;19935;-75
2022/04/14 14:09:10;;;;;;;;;;;;;;;;;;5113430;28;19939;-74
2022/04/14 14:11:36;;;;;;;;;;;;;;;;;;5112012;28;19994;-75
2022/04/14 14:14:02;;;;;;;;;;;;;;;;;;5094496;28;20268;-75
2022/04/14 14:16:28;;;;;;;;;;;;;;;;;;5112813;28;19919;-75
2022/04/14 14:18:53;;;;;;;;;;;;;;;;;;5112642;28;19908;-75
2022/04/14 14:21:19;;;;;;;;;;;;;;;;;;5094628;28;19911;-75
2022/04/14 14:23:45;;;;;;;;;;;;;;;;;;5094173;28;19908;-75
2022/04/14 14:26:11;;;;;;;;;;;;;;;;;;5094370;28;20398;-75
2022/04/14 14:28:37;;;;;;;;;;;;;;;;;;5112871;28;20329;-76
2022/04/14 14:31:03;;;;;;;;;;;;;;;;;;5113302;28;19951;-75
2022/04/14 14:33:29;;;;;;;;;;;;;;;;;;5094437;28;20382;-75
2022/04/14 14:35:55;;;;;;;;;;;;;;;;;;5112629;28;19912;-75
2022/04/14 14:38:21;;;;;;;;;;;;;;;;;;5094393;28;19919;-75
2022/04/14 14:40:47;;;;;;;;;;;;;;;;;;5112975;28;19942;-75
2022/04/14 14:43:13;;;;;;;;;;;;;;;;;;5094107;28;20422;-75
2022/04/14 14:45:40;;;;;;;;;;;;;;;;;;5112933;28;19912;-75
2022/04/14 14:48:06;;;;;;;;;;;;;;;;;;5112365;28;20308;-74
2022/04/14 14:50:32;;;;;;;;;;;;;;;;;;5094057;28;20056;-76
2022/04/14 14:52:58;;;;;;;;;;;;;;;;;;5093954;28;19912;-76
2022/04/14 14:55:24;;;;;;;;;;;;;;;;;;5112448;28;19911;-75
2022/04/14 15:00:34;;;;;;;;;;;;;;;;;;5112430;28;19934;-75
2022/04/14 15:03:00;;;;;;;;;;;;;;;;;;5111826;28;19912;-75
2022/04/14 15:05:26;;;;;;;;;;;;;;;;;;5093694;28;20641;-75
2022/04/14 15:07:52;;;;;;;;;;;;;;;;;;5111747;28;19928;-75
2022/04/14 15:10:18;;;;;;;;;;;;;;;;;;5093819;28;20008;-75
2022/04/14 15:12:44;;;;;;;;;;;;;;;;;;5112007;28;19912;-75
2022/04/14 15:15:10;;;;;;;;;;;;;;;;;;5112373;28;19912;-75
2022/04/14 15:17:35;;;;;;;;;;;;;;;;;;5111927;28;20283;-75
2022/04/14 15:20:01;;;;;;;;;;;;;;;;;;5093648;28;19922;-75
2022/04/14 15:22:27;;;;;;;;;;;;;;;;;;5111692;28;20024;-75
2022/04/14 15:24:53;;;;;;;;;;;;;;;;;;5111689;28;19922;-75
2022/04/14 15:27:19;;;;;;;;;;;;;;;;;;5093527;28;20589;-75
2022/04/14 15:29:45;;;;;;;;;;;;;;;;;;5111760;28;19960;-75
2022/04/14 15:32:11;;;;;;;;;;;;;;;;;;5111723;28;19912;-75
2022/04/14 15:34:37;;;;;;;;;;;;;;;;;;5111772;28;20309;-75
2022/04/14 15:37:03;;;;;;;;;;;;;;;;;;5093293;28;19920;-74
2022/04/14 15:39:28;;;;;;;;;;;;;;;;;;5093315;28;19964;-75
2022/04/14 15:41:54;;;;;;;;;;;;;;;;;;5111576;28;19959;-75
2022/04/14 15:44:20;;;;;;;;;;;;;;;;;;5093302;28;19977;-75
2022/04/14 15:46:46;;;;;;;;;;;;;;;;;;5111449;28;19912;-75
2022/04/14 15:49:12;;;;;;;;;;;;;;;;;;5093117;28;19919;-75
2022/04/14 15:51:38;;;;;;;;;;;;;;;;;;5093150;28;19999;-75
2022/04/14 15:54:04;;;;;;;;;;;;;;;;;;5093156;28;19919;-75
2022/04/14 15:56:30;;;;;;;;;;;;;;;;;;5111475;28;19912;-75
2022/04/14 15:58:56;;;;;;;;;;;;;;;;;;5093033;28;20327;-75
2022/04/14 16:01:22;;;;;;;;;;;;;;;;;;5111404;28;20039;-75
2022/04/14 16:03:48;;;;;;;;;;;;;;;;;;5093272;28;19915;-75
2022/04/14 16:06:14;;;;;;;;;;;;;;;;;;5111482;28;20364;-75
2022/04/14 16:08:40;;;;;;;;;;;;;;;;;;5092867;28;19919;-75
2022/04/14 16:13:51;;;;;;;;;;;;;;;;;;5111345;28;19968;-75
2022/04/14 16:16:16;;;;;;;;;;;;;;;;;;5093100;28;19916;-75
2022/04/14 16:18:43;;;;;;;;;;;;;;;;;;5111403;28;19912;-76
2022/04/14 16:21:09;;;;;;;;;;;;;;;;;;5111268;28;19916;-76
2022/04/14 16:23:36;;;;;;;;;;;;;;;;;;5093114;28;19954;-73
2022/04/14 16:26:02;;;;;;;;;;;;;;;;;;5111616;28;20003;-74
2022/04/14 16:28:28;;;;;;;;;;;;;;;;;;5111490;28;19959;-76
2022/04/14 16:30:54;;;;;;;;;;;;;;;;;;5092546;28;20280;-76
2022/04/14 16:33:20;;;;;;;;;;;;;;;;;;5092514;28;19912;-75
2022/04/14 16:35:46;;;;;;;;;;;;;;;;;;5113166;28;20271;-75
2022/04/14 16:38:12;;;;;;;;;;;;;;;;;;5096883;28;20212;-75
2022/04/14 16:40:38;;;;;;;;;;;;;;;;;;5115119;28;19957;-75
2022/04/14 16:43:03;;;;;;;;;;;;;;;;;;5096523;28;20372;-75